createdAt,value
2023-04-28T00:03:09.239Z,99139.29
2023-04-28T00:06:03.453Z,99143.05
2023-04-28T00:08:57.213Z,99140.38
2023-04-28T00:11:50.829Z,99141.53
2023-04-28T00:14:44.573Z,99141.77
2023-04-28T00:17:38.219Z,99140.90
2023-04-28T00:20:32.423Z,99139.89
2023-04-28T00:23:26.220Z,99140.23
2023-04-28T00:26:19.960Z,99141.84
2023-04-28T00:29:13.770Z,99141.20
2023-04-28T00:32:07.968Z,99141.70
2023-04-28T00:35:02.724Z,99144.16
2023-04-28T00:37:56.775Z,99142.06
2023-04-28T00:40:50.451Z,99142.72
2023-04-28T00:43:51.806Z,99140.35
2023-04-28T00:46:45.680Z,99135.65
2023-04-28T00:49:39.742Z,99129.84
2023-04-28T00:52:34.165Z,99132.48
2023-04-28T00:55:31.972Z,99135.66
2023-04-28T00:58:24.591Z,99139.45
2023-04-28T01:01:19.102Z,99136.58
2023-04-28T01:04:13.096Z,99139.80
2023-04-28T01:07:07.328Z,99144.32
2023-04-28T01:10:00.918Z,99144.85
2023-04-28T01:12:54.473Z,99144.78
2023-04-28T01:15:48.158Z,99145.68
2023-04-28T01:18:48.108Z,99144.59
2023-04-28T01:21:41.783Z,99143.25
2023-04-28T01:24:35.665Z,99145.36
2023-04-28T01:27:29.273Z,99143.33
2023-04-28T01:30:23.383Z,99143.30
2023-04-28T01:33:17.160Z,99138.97
2023-04-28T01:36:11.959Z,99137.71
2023-04-28T01:39:06.012Z,99137.56
2023-04-28T01:41:59.775Z,99132.58
2023-04-28T01:44:53.443Z,99133.65
2023-04-28T01:47:47.561Z,99133.36
2023-04-28T01:50:41.151Z,99130.24
2023-04-28T01:53:34.789Z,99133.00
2023-04-28T01:56:28.756Z,99134.46
2023-04-28T01:59:22.462Z,99138.38
2023-04-28T02:02:16.336Z,99140.97
2023-04-28T02:05:12.143Z,99139.98
2023-04-28T02:08:06.136Z,99140.36
2023-04-28T02:11:01.592Z,99142.25
2023-04-28T02:13:55.998Z,99135.02
2023-04-28T02:16:49.984Z,99135.08
2023-04-28T02:19:43.625Z,99134.61
2023-04-28T02:22:37.446Z,99131.34
2023-04-28T02:25:31.522Z,99127.40
2023-04-28T02:28:25.382Z,99124.83
2023-04-28T02:31:19.194Z,99123.10
2023-04-28T02:34:13.075Z,99121.05
2023-04-28T02:37:07.433Z,99122.71
2023-04-28T02:40:01.421Z,99123.89
2023-04-28T02:42:55.195Z,99116.13
2023-04-28T02:45:48.826Z,99114.30
2023-04-28T02:48:42.810Z,99112.95
2023-04-28T02:51:36.683Z,99116.38
2023-04-28T02:54:30.848Z,99112.20
2023-04-28T02:57:25.039Z,99114.14
2023-04-28T03:00:20.686Z,99116.41
2023-04-28T03:03:14.813Z,99114.54
2023-04-28T03:06:09.268Z,99109.55
2023-04-28T03:09:04.021Z,99113.57
2023-04-28T03:11:57.650Z,99102.66
2023-04-28T03:14:51.678Z,99100.02
2023-04-28T03:17:45.724Z,99102.09
2023-04-28T03:20:39.507Z,99104.84
2023-04-28T03:23:33.233Z,99104.62
2023-04-28T03:26:27.191Z,99106.40
2023-04-28T03:29:21.278Z,99109.84
2023-04-28T03:32:15.070Z,99108.72
2023-04-28T03:35:10.253Z,99110.33
2023-04-28T03:38:04.147Z,99105.79
2023-04-28T03:40:58.219Z,99106.98
2023-04-28T03:43:52.007Z,99105.73
2023-04-28T03:46:45.694Z,99102.49
2023-04-28T03:49:39.650Z,99105.95
2023-04-28T03:52:33.447Z,99104.15
2023-04-28T03:55:28.151Z,99100.41
2023-04-28T03:58:22.151Z,99101.77
2023-04-28T04:01:15.755Z,99101.05
2023-04-28T04:04:09.762Z,99103.25
2023-04-28T04:07:04.472Z,99108.77
2023-04-28T04:09:58.407Z,99108.18
2023-04-28T04:12:52.511Z,99112.11
2023-04-28T04:15:46.255Z,99109.50
2023-04-28T04:18:40.253Z,99109.10
2023-04-28T04:21:35.052Z,99114.06
2023-04-28T04:24:29.053Z,99110.90
2023-04-28T04:27:22.935Z,99112.91
2023-04-28T04:30:17.210Z,99120.34
2023-04-28T04:33:13.088Z,99120.52
2023-04-28T04:36:07.908Z,99118.05
2023-04-28T04:39:01.887Z,99123.21
2023-04-28T04:41:55.475Z,99126.14
2023-04-28T04:44:49.446Z,99127.16
2023-04-28T04:47:43.894Z,99124.34
2023-04-28T04:50:37.810Z,99121.48
2023-04-28T04:53:31.800Z,99117.37
2023-04-28T04:56:25.679Z,99124.48
2023-04-28T04:59:19.714Z,99127.00
2023-04-28T05:02:13.752Z,99127.55
2023-04-28T05:05:20.508Z,99126.63
2023-04-28T05:08:16.184Z,99130.48
2023-04-28T05:11:10.522Z,99129.34
2023-04-28T05:14:04.560Z,99132.64
2023-04-28T05:16:58.509Z,99131.02
2023-04-28T05:19:53.700Z,99134.57
2023-04-28T05:22:47.707Z,99128.76
2023-04-28T05:25:42.052Z,99129.19
2023-04-28T05:28:36.280Z,99131.58
2023-04-28T05:31:30.561Z,99129.70
2023-04-28T05:34:24.658Z,99130.03
2023-04-28T05:37:18.550Z,99129.69
2023-04-28T05:40:14.410Z,99125.86
2023-04-28T05:43:08.244Z,99124.98
2023-04-28T05:46:02.972Z,99126.61
2023-04-28T05:48:56.713Z,99121.52
2023-04-28T05:51:50.414Z,99118.61
2023-04-28T05:54:44.195Z,99116.55
2023-04-28T05:57:49.198Z,99116.64
2023-04-28T06:00:46.150Z,99114.90
2023-04-28T06:03:41.983Z,99116.20
2023-04-28T06:06:36.619Z,99119.13
2023-04-28T06:09:30.695Z,99119.11
2023-04-28T06:12:24.559Z,99121.33
2023-04-28T06:15:18.405Z,99121.73
2023-04-28T06:18:12.158Z,99119.48
2023-04-28T06:21:06.118Z,99118.77
2023-04-28T06:24:00.848Z,99122.06
2023-04-28T06:26:54.538Z,99118.14
2023-04-28T06:29:48.430Z,99119.34
2023-04-28T06:32:42.162Z,99119.66
2023-04-28T06:35:38.914Z,99112.69
2023-04-28T06:38:32.562Z,99109.48
2023-04-28T06:41:26.565Z,99110.60
2023-04-28T06:44:20.242Z,99109.06
2023-04-28T06:47:14.004Z,99113.48
2023-04-28T06:50:08.866Z,99106.75
2023-04-28T06:53:03.105Z,99109.72
2023-04-28T06:55:56.881Z,99104.30
2023-04-28T06:58:50.951Z,99102.36
2023-04-28T07:01:44.884Z,99099.08
2023-04-28T07:04:38.828Z,99095.41
2023-04-28T07:07:32.557Z,99098.06
2023-04-28T07:10:26.405Z,99097.97
2023-04-28T07:13:20.319Z,99092.48
2023-04-28T07:16:14.153Z,99094.17
2023-04-28T07:19:07.783Z,99094.30
2023-04-28T07:22:01.520Z,99091.39
2023-04-28T07:24:55.270Z,99090.42
2023-04-28T07:27:50.284Z,99087.85
2023-04-28T07:30:44.753Z,99089.12
2023-04-28T07:33:38.490Z,99087.08
2023-04-28T07:36:32.793Z,99081.79
2023-04-28T07:39:26.719Z,99078.33
2023-04-28T07:42:20.430Z,99073.64
2023-04-28T07:45:15.951Z,99071.95
2023-04-28T07:48:10.028Z,99074.85
2023-04-28T07:51:03.908Z,99068.89
2023-04-28T07:53:58.006Z,99068.95
2023-04-28T07:56:52.072Z,99074.77
2023-04-28T07:59:45.940Z,99074.91
2023-04-28T08:02:40.140Z,99072.97
2023-04-28T08:05:34.701Z,99074.48
2023-04-28T08:08:28.447Z,99069.13
2023-04-28T08:11:22.514Z,99068.29
2023-04-28T08:14:16.544Z,99059.74
2023-04-28T08:17:10.501Z,99060.18
2023-04-28T08:20:04.981Z,99059.98
2023-04-28T08:22:59.112Z,99057.63
2023-04-28T08:25:53.718Z,99054.13
2023-04-28T08:28:47.387Z,99053.13
2023-04-28T08:31:41.712Z,99050.68
2023-04-28T08:34:35.713Z,99042.44
2023-04-28T08:37:29.574Z,99040.26
2023-04-28T08:40:24.394Z,99038.31
2023-04-28T08:43:18.340Z,99033.19
2023-04-28T08:46:12.498Z,99032.08
2023-04-28T08:49:08.926Z,99026.30
2023-04-28T08:52:04.134Z,99026.88
2023-04-28T08:54:59.597Z,99025.82
2023-04-28T08:57:54.876Z,99020.14
2023-04-28T09:00:48.676Z,99022.88
2023-04-28T09:03:43.179Z,99019.88
2023-04-28T09:06:39.859Z,99015.27
2023-04-28T09:09:37.063Z,99009.62
2023-04-28T09:12:41.998Z,99006.70
2023-04-28T09:15:37.529Z,98998.72
2023-04-28T09:18:33.082Z,99005.66
2023-04-28T09:21:27.006Z,98997.96
2023-04-28T09:24:33.522Z,99002.41
2023-04-28T09:27:30.707Z,98999.52
2023-04-28T09:30:44.728Z,98995.56
2023-04-28T09:33:38.997Z,98988.15
2023-04-28T09:36:33.700Z,98993.46
2023-04-28T09:39:34.708Z,98991.79
2023-04-28T09:42:38.448Z,98987.26
2023-04-28T09:45:52.987Z,98985.52
2023-04-28T09:48:47.253Z,98984.54
2023-04-28T09:51:41.139Z,98976.52
2023-04-28T09:54:36.995Z,98975.36
2023-04-28T09:57:33.865Z,98966.69
2023-04-28T10:00:28.701Z,98965.18
2023-04-28T10:03:27.559Z,98958.34
2023-04-28T10:06:23.645Z,98950.53
2023-04-28T10:09:02.753Z,98954.73
2023-04-28T10:11:57.383Z,98944.52
2023-04-28T10:14:42.590Z,98937.05
2023-04-28T10:17:22.858Z,98937.14
2023-04-28T10:20:18.730Z,98933.98
2023-04-28T10:23:59.667Z,98925.92
2023-04-28T10:27:11.253Z,98926.09
2023-04-28T10:30:27.275Z,98919.73
2023-04-28T10:33:30.763Z,98916.39
2023-04-28T10:36:55.100Z,98920.02
2023-04-28T10:40:34.664Z,98920.14
2023-04-28T10:43:43.717Z,98910.38
2023-04-28T10:47:03.119Z,98905.79
2023-04-28T10:50:15.813Z,98899.95
2023-04-28T10:53:09.514Z,98890.92
2023-04-28T10:56:11.810Z,98891.61
2023-04-28T10:59:28.934Z,98885.73
2023-04-28T11:02:45.105Z,98883.39
2023-04-28T11:05:39.620Z,98878.09
2023-04-28T11:08:39.611Z,98872.89
2023-04-28T11:11:35.081Z,98863.91
2023-04-28T11:14:40.427Z,98865.17
2023-04-28T11:17:43.748Z,98854.77
2023-04-28T11:20:38.725Z,98858.11
2023-04-28T11:23:34.466Z,98855.09
2023-04-28T11:26:29.584Z,98847.81
2023-04-28T11:29:44.135Z,98842.81
2023-04-28T11:32:40.224Z,98842.95
2023-04-28T11:35:45.034Z,98841.54
2023-04-28T11:38:51.075Z,98831.77
2023-04-28T11:41:46.223Z,98832.34
2023-04-28T11:44:40.596Z,98830.90
2023-04-28T11:47:36.779Z,98835.27
2023-04-28T11:50:41.552Z,98832.91
2023-04-28T11:53:47.431Z,98826.79
2023-04-28T11:56:44.793Z,98822.67
2023-04-28T11:59:39.964Z,98824.23
2023-04-28T12:02:37.072Z,98823.69
2023-04-28T12:05:31.639Z,98818.77
2023-04-28T12:08:33.240Z,98815.23
2023-04-28T12:11:27.100Z,98804.13
2023-04-28T12:14:21.151Z,98802.02
2023-04-28T12:17:39.909Z,98810.44
2023-04-28T12:20:41.239Z,98806.77
2023-04-28T12:23:36.929Z,98802.02
2023-04-28T12:26:30.937Z,98794.14
2023-04-28T12:30:04.504Z,98789.46
2023-04-28T12:33:01.606Z,98789.20
2023-04-28T12:36:05.874Z,98778.27
2023-04-28T12:38:59.642Z,98770.82
2023-04-28T12:41:53.604Z,98769.33
2023-04-28T12:44:47.944Z,98761.68
2023-04-28T12:47:42.243Z,98756.63
2023-04-28T12:50:36.512Z,98755.40
2023-04-28T12:53:30.247Z,98754.05
2023-04-28T12:56:24.736Z,98746.65
2023-04-28T12:59:18.626Z,98742.95
2023-04-28T13:02:13.889Z,98745.19
2023-04-28T13:05:09.284Z,98736.02
2023-04-28T13:08:03.163Z,98741.02
2023-04-28T13:10:57.360Z,98734.45
2023-04-28T13:13:52.836Z,98730.81
2023-04-28T13:16:47.078Z,98731.72
2023-04-28T13:19:40.991Z,98725.94
2023-04-28T13:22:35.151Z,98728.58
2023-04-28T13:25:28.989Z,98722.33
2023-04-28T13:28:22.852Z,98711.21
2023-04-28T13:31:16.649Z,98710.20
2023-04-28T13:34:15.897Z,98706.53
2023-04-28T13:37:10.516Z,98702.98
2023-04-28T13:40:06.190Z,98701.34
2023-04-28T13:43:00.507Z,98694.45
2023-04-28T13:45:54.718Z,98688.55
2023-04-28T13:48:48.596Z,98686.19
2023-04-28T13:51:42.728Z,98679.05
2023-04-28T13:54:37.127Z,98680.85
2023-04-28T13:57:31.426Z,98675.55
2023-04-28T14:00:26.063Z,98670.37
2023-04-28T14:03:21.817Z,98667.54
2023-04-28T14:06:15.712Z,98669.45
2023-04-28T14:09:09.844Z,98663.66
2023-04-28T14:12:03.562Z,98662.78
2023-04-28T14:14:57.648Z,98658.89
2023-04-28T14:17:52.721Z,98667.71
2023-04-28T14:20:46.793Z,98655.34
2023-04-28T14:23:40.940Z,98655.61
2023-04-28T14:26:35.298Z,98650.41
2023-04-28T14:29:29.331Z,98642.07
2023-04-28T14:32:23.098Z,98639.98
2023-04-28T14:35:17.555Z,98640.52
2023-04-28T14:38:11.434Z,98644.10
2023-04-28T14:41:05.239Z,98638.33
2023-04-28T14:43:59.089Z,98638.10
2023-04-28T14:46:53.395Z,98638.98
2023-04-28T14:49:48.622Z,98636.96
2023-04-28T14:52:42.535Z,98633.35
2023-04-28T14:55:36.582Z,98633.77
2023-04-28T14:58:30.371Z,98638.22
2023-04-28T15:01:24.534Z,98635.50
2023-04-28T15:04:18.658Z,98630.95
2023-04-28T15:07:12.589Z,98636.23
2023-04-28T15:10:06.796Z,98631.03
2023-04-28T15:13:00.574Z,98636.41
2023-04-28T15:15:54.837Z,98636.39
2023-04-28T15:18:49.125Z,98636.31
2023-04-28T15:21:43.298Z,98639.48
2023-04-28T15:24:37.196Z,98627.38
2023-04-28T15:27:31.285Z,98623.92
2023-04-28T15:30:25.046Z,98622.69
2023-04-28T15:33:19.024Z,98618.56
2023-04-28T15:36:13.788Z,98617.42
2023-04-28T15:39:07.883Z,98616.92
2023-04-28T15:42:01.552Z,98610.16
2023-04-28T15:44:56.247Z,98605.30
2023-04-28T15:47:51.954Z,98604.39
2023-04-28T15:50:46.544Z,98603.39
2023-04-28T15:53:41.696Z,98597.31
2023-04-28T15:56:36.138Z,98593.27
2023-04-28T15:59:31.078Z,98592.48
2023-04-28T16:02:26.883Z,98593.06
2023-04-28T16:05:20.983Z,98594.21
2023-04-28T16:08:14.943Z,98591.60
2023-04-28T16:11:09.314Z,98580.20
2023-04-28T16:14:03.162Z,98576.53
2023-04-28T16:16:57.593Z,98576.95
2023-04-28T16:19:52.445Z,98576.11
2023-04-28T16:22:46.768Z,98572.81
2023-04-28T16:25:41.171Z,98568.73
2023-04-28T16:28:35.510Z,98564.27
2023-04-28T16:31:29.639Z,98572.58
2023-04-28T16:34:23.593Z,98565.33
2023-04-28T16:37:17.826Z,98564.34
2023-04-28T16:40:13.871Z,98563.09
2023-04-28T16:43:07.665Z,98560.58
2023-04-28T16:45:51.349Z,98559.21
2023-04-28T16:48:45.644Z,98557.28
2023-04-28T16:51:39.508Z,98554.58
2023-04-28T16:54:33.922Z,98553.70
2023-04-28T16:57:28.207Z,98550.42
2023-04-28T17:00:24.198Z,98552.77
2023-04-28T17:03:18.403Z,98550.71
2023-04-28T17:06:02.439Z,98546.80
2023-04-28T17:08:56.893Z,98548.88
2023-04-28T17:11:50.908Z,98547.38
2023-04-28T17:14:44.732Z,98546.54
2023-04-28T17:17:21.342Z,98543.54
2023-04-28T17:20:18.164Z,98544.33
2023-04-28T17:23:12.258Z,98539.11
2023-04-28T17:26:06.441Z,98535.73
2023-04-28T17:29:01.151Z,98540.55
2023-04-28T17:31:55.015Z,98540.42
2023-04-28T17:34:50.171Z,98547.84
2023-04-28T17:37:43.814Z,98542.22
2023-04-28T17:40:37.407Z,98547.02
2023-04-28T17:43:31.451Z,98544.64
2023-04-28T17:46:25.597Z,98543.98
2023-04-28T17:49:19.880Z,98543.54
2023-04-28T17:52:15.411Z,98545.52
2023-04-28T17:55:11.012Z,98545.95
2023-04-28T17:58:04.725Z,98546.02
2023-04-28T18:01:06.031Z,98549.87
2023-04-28T18:03:59.746Z,98551.86
2023-04-28T18:06:53.609Z,98553.90
2023-04-28T18:09:47.425Z,98557.47
2023-04-28T18:12:41.403Z,98566.48
2023-04-28T18:15:35.254Z,98570.88
2023-04-28T18:18:31.058Z,98578.05
2023-04-28T18:21:25.878Z,98578.66
2023-04-28T18:24:19.855Z,98582.30
2023-04-28T18:27:13.687Z,98585.05
2023-04-28T18:30:08.520Z,98584.73
2023-04-28T18:33:02.140Z,98586.29
2023-04-28T18:36:07.178Z,98585.09
2023-04-28T18:39:01.791Z,98583.76
2023-04-28T18:41:55.389Z,98587.20
2023-04-28T18:44:52.900Z,98591.61
2023-04-28T18:47:46.764Z,98595.13
2023-04-28T18:50:40.715Z,98598.41
2023-04-28T18:53:34.645Z,98598.39
2023-04-28T18:56:28.386Z,98599.14
2023-04-28T18:59:22.432Z,98595.68
2023-04-28T19:02:16.585Z,98598.58
2023-04-28T19:05:11.852Z,98601.40
2023-04-28T19:08:10.880Z,98607.99
2023-04-28T19:11:05.659Z,98607.59
2023-04-28T19:14:00.477Z,98609.97
2023-04-28T19:16:54.180Z,98609.66
2023-04-28T19:19:48.198Z,98614.52
2023-04-28T19:22:43.816Z,98606.80
2023-04-28T19:25:37.713Z,98609.67
2023-04-28T19:28:31.785Z,98608.42
2023-04-28T19:31:25.553Z,98603.89
2023-04-28T19:34:19.252Z,98604.45
2023-04-28T19:37:13.862Z,98605.27
2023-04-28T19:40:09.717Z,98606.48
2023-04-28T19:43:04.056Z,98603.45
2023-04-28T19:45:58.181Z,98605.15
2023-04-28T19:48:52.762Z,98604.66
2023-04-28T19:51:46.442Z,98602.33
2023-04-28T19:54:40.270Z,98598.15
2023-04-28T19:57:33.888Z,98595.68
2023-04-28T20:00:29.795Z,98595.49
2023-04-28T20:03:24.972Z,98597.11
2023-04-28T20:06:21.054Z,98592.66
2023-04-28T20:09:14.695Z,98592.04
2023-04-28T20:12:10.536Z,98586.91
2023-04-28T20:15:04.411Z,98587.33
2023-04-28T20:17:58.234Z,98587.84
2023-04-28T20:20:54.759Z,98587.52
2023-04-28T20:23:48.387Z,98587.86
2023-04-28T20:26:42.676Z,98581.55
2023-04-28T20:29:37.119Z,98585.48
2023-04-28T20:32:30.953Z,98582.25
2023-04-28T20:35:25.125Z,98582.27
2023-04-28T20:38:19.793Z,98587.48
2023-04-28T20:41:13.677Z,98587.45
2023-04-28T20:44:07.578Z,98589.91
2023-04-28T20:47:01.590Z,98590.22
2023-04-28T20:49:55.209Z,98590.01
2023-04-28T20:52:48.976Z,98579.60
2023-04-28T20:55:42.678Z,98577.84
2023-04-28T20:58:36.449Z,98576.08
2023-04-28T21:01:30.062Z,98577.46
2023-04-28T21:04:23.784Z,98571.85
2023-04-28T21:07:17.852Z,98572.05
2023-04-28T21:10:13.160Z,98570.66
2023-04-28T21:13:08.596Z,98563.84
2023-04-28T21:16:02.393Z,98566.13
2023-04-28T21:18:56.654Z,98569.60
2023-04-28T21:21:50.624Z,98562.06
2023-04-28T21:24:44.430Z,98566.14
2023-04-28T21:27:38.117Z,98563.56
2023-04-28T21:30:31.869Z,98562.91
2023-04-28T21:33:25.661Z,98562.82
2023-04-28T21:36:19.399Z,98557.15
2023-04-28T21:39:13.147Z,98552.52
2023-04-28T21:42:08.094Z,98557.24
2023-04-28T21:45:01.863Z,98554.23
2023-04-28T21:47:57.044Z,98546.06
2023-04-28T21:50:50.701Z,98543.74
2023-04-28T21:53:44.374Z,98542.95
2023-04-28T21:56:38.145Z,98543.84
2023-04-28T21:59:31.883Z,98546.16
2023-04-28T22:02:25.627Z,98549.90
2023-04-28T22:05:19.957Z,98545.91
2023-04-28T22:08:13.874Z,98542.17
2023-04-28T22:11:08.038Z,98543.41
2023-04-28T22:14:01.647Z,98543.92
2023-04-28T22:16:55.237Z,98543.05
2023-04-28T22:19:49.501Z,98546.13
2023-04-28T22:22:43.621Z,98549.08
2023-04-28T22:25:38.102Z,98545.70
2023-04-28T22:28:32.058Z,98545.87
2023-04-28T22:31:25.788Z,98541.91
2023-04-28T22:34:19.514Z,98544.34
2023-04-28T22:37:13.255Z,98541.63
2023-04-28T22:40:08.937Z,98539.92
2023-04-28T22:43:02.808Z,98538.40
2023-04-28T22:45:58.049Z,98537.05
2023-04-28T22:48:52.215Z,98531.51
2023-04-28T22:51:46.213Z,98535.95
2023-04-28T22:54:40.041Z,98532.90
2023-04-28T22:57:34.281Z,98533.56
2023-04-28T23:00:28.656Z,98531.17
2023-04-28T23:03:22.802Z,98530.91
2023-04-28T23:06:02.017Z,98532.94
2023-04-28T23:08:56.580Z,98529.93
2023-04-28T23:11:50.498Z,98529.47
2023-04-28T23:14:44.298Z,98530.39
2023-04-28T23:17:38.381Z,98528.77
2023-04-28T23:20:34.066Z,98519.60
2023-04-28T23:23:27.677Z,98521.59
2023-04-28T23:26:21.785Z,98519.06
2023-04-28T23:29:15.588Z,98513.95
2023-04-28T23:32:09.629Z,98514.95
2023-04-28T23:35:03.339Z,98509.31
2023-04-28T23:37:57.104Z,98507.73
2023-04-28T23:40:36.205Z,98506.70
2023-04-28T23:43:29.779Z,98496.24
2023-04-28T23:46:23.868Z,98494.27
2023-04-28T23:49:17.782Z,98489.90
2023-04-28T23:52:11.463Z,98491.40
2023-04-28T23:55:05.571Z,98486.23
2023-04-28T23:57:59.563Z,98488.27
